sensor_id;sensor_type;location;lat;lon;timestamp;P1;durP1;ratioP1;P2;durP2;ratioP2
39880;SDS011;25554;44.954;10.068;2023-06-10T00:01:55;18.25;;;13.57;;
39880;SDS011;25554;44.954;10.068;2023-06-10T00:04:25;19.85;;;14.98;;
39880;SDS011;25554;44.954;10.068;2023-06-10T00:06:55;19.33;;;14.50;;
39880;SDS011;25554;44.954;10.068;2023-06-10T00:09:23;19.13;;;14.18;;
39880;SDS011;25554;44.954;10.068;2023-06-10T00:11:49;16.58;;;13.55;;
39880;SDS011;25554;44.954;10.068;2023-06-10T00:14:16;18.58;;;14.02;;
39880;SDS011;25554;44.954;10.068;2023-06-10T00:16:42;19.50;;;13.77;;
39880;SDS011;25554;44.954;10.068;2023-06-10T00:19:10;15.10;;;12.90;;
39880;SDS011;25554;44.954;10.068;2023-06-10T00:21:39;20.25;;;13.73;;
39880;SDS011;25554;44.954;10.068;2023-06-10T00:24:06;19.17;;;15.65;;
39880;SDS011;25554;44.954;10.068;2023-06-10T00:26:37;21.73;;;16.00;;
39880;SDS011;25554;44.954;10.068;2023-06-10T00:29:04;18.58;;;15.48;;
39880;SDS011;25554;44.954;10.068;2023-06-10T00:31:31;20.05;;;16.13;;
39880;SDS011;25554;44.954;10.068;2023-06-10T00:33:58;19.95;;;15.65;;
39880;SDS011;25554;44.954;10.068;2023-06-10T00:36:25;20.08;;;17.23;;
39880;SDS011;25554;44.954;10.068;2023-06-10T00:38:52;21.35;;;15.32;;
39880;SDS011;25554;44.954;10.068;2023-06-10T00:41:19;16.73;;;14.38;;
39880;SDS011;25554;44.954;10.068;2023-06-10T00:43:45;20.15;;;14.60;;
39880;SDS011;25554;44.954;10.068;2023-06-10T00:46:13;15.98;;;13.98;;
39880;SDS011;25554;44.954;10.068;2023-06-10T00:48:41;17.48;;;14.23;;
39880;SDS011;25554;44.954;10.068;2023-06-10T00:51:08;20.70;;;15.88;;
39880;SDS011;25554;44.954;10.068;2023-06-10T00:53:36;16.35;;;14.45;;
39880;SDS011;25554;44.954;10.068;2023-06-10T00:56:04;20.05;;;15.38;;
39880;SDS011;25554;44.954;10.068;2023-06-10T00:58:31;18.73;;;15.55;;
39880;SDS011;25554;44.954;10.068;2023-06-10T01:00:58;19.17;;;16.30;;
39880;SDS011;25554;44.954;10.068;2023-06-10T01:03:27;23.05;;;16.48;;
39880;SDS011;25554;44.954;10.068;2023-06-10T01:05:57;19.83;;;15.07;;
39880;SDS011;25554;44.954;10.068;2023-06-10T01:08:33;20.77;;;16.08;;
39880;SDS011;25554;44.954;10.068;2023-06-10T01:11:03;22.45;;;17.17;;
39880;SDS011;25554;44.954;10.068;2023-06-10T01:13:33;22.60;;;16.65;;
39880;SDS011;25554;44.954;10.068;2023-06-10T01:16:02;22.80;;;17.20;;
39880;SDS011;25554;44.954;10.068;2023-06-10T01:18:29;19.63;;;16.45;;
39880;SDS011;25554;44.954;10.068;2023-06-10T01:20:57;24.70;;;16.92;;
39880;SDS011;25554;44.954;10.068;2023-06-10T01:23:24;18.77;;;16.77;;
39880;SDS011;25554;44.954;10.068;2023-06-10T01:25:56;20.60;;;16.35;;
39880;SDS011;25554;44.954;10.068;2023-06-10T01:31:07;24.45;;;17.42;;
39880;SDS011;25554;44.954;10.068;2023-06-10T01:33:41;24.73;;;16.95;;
39880;SDS011;25554;44.954;10.068;2023-06-10T01:36:09;26.67;;;18.42;;
39880;SDS011;25554;44.954;10.068;2023-06-10T01:38:45;19.42;;;16.25;;
39880;SDS011;25554;44.954;10.068;2023-06-10T01:41:14;19.98;;;16.08;;
39880;SDS011;25554;44.954;10.068;2023-06-10T01:43:42;24.50;;;15.90;;
39880;SDS011;25554;44.954;10.068;2023-06-10T01:46:09;23.50;;;14.57;;
39880;SDS011;25554;44.954;10.068;2023-06-10T01:48:37;19.48;;;14.88;;
39880;SDS011;25554;44.954;10.068;2023-06-10T01:51:04;22.08;;;14.75;;
39880;SDS011;25554;44.954;10.068;2023-06-10T01:53:30;22.38;;;16.23;;
39880;SDS011;25554;44.954;10.068;2023-06-10T01:55:57;25.05;;;16.50;;
39880;SDS011;25554;44.954;10.068;2023-06-10T01:58:24;19.55;;;15.38;;
39880;SDS011;25554;44.954;10.068;2023-06-10T02:00:50;23.90;;;15.73;;
39880;SDS011;25554;44.954;10.068;2023-06-10T02:03:17;20.05;;;13.30;;
39880;SDS011;25554;44.954;10.068;2023-06-10T02:05:44;22.45;;;13.20;;
39880;SDS011;25554;44.954;10.068;2023-06-10T02:08:10;21.05;;;12.95;;
39880;SDS011;25554;44.954;10.068;2023-06-10T02:10:37;14.60;;;10.90;;
39880;SDS011;25554;44.954;10.068;2023-06-10T02:13:04;13.85;;;11.55;;
39880;SDS011;25554;44.954;10.068;2023-06-10T02:15:31;20.45;;;11.95;;
39880;SDS011;25554;44.954;10.068;2023-06-10T02:17:59;14.60;;;10.38;;
39880;SDS011;25554;44.954;10.068;2023-06-10T02:20:26;12.32;;;9.02;;
39880;SDS011;25554;44.954;10.068;2023-06-10T02:22:53;15.63;;;8.27;;
39880;SDS011;25554;44.954;10.068;2023-06-10T02:25:19;15.65;;;8.77;;
39880;SDS011;25554;44.954;10.068;2023-06-10T02:27:46;15.85;;;8.90;;
39880;SDS011;25554;44.954;10.068;2023-06-10T02:30:12;16.27;;;7.93;;
39880;SDS011;25554;44.954;10.068;2023-06-10T02:32:40;10.07;;;7.35;;
39880;SDS011;25554;44.954;10.068;2023-06-10T02:35:06;12.90;;;6.90;;
39880;SDS011;25554;44.954;10.068;2023-06-10T02:37:33;10.90;;;6.93;;
39880;SDS011;25554;44.954;10.068;2023-06-10T02:40:00;10.98;;;6.88;;
39880;SDS011;25554;44.954;10.068;2023-06-10T02:42:27;8.27;;;6.60;;
39880;SDS011;25554;44.954;10.068;2023-06-10T02:44:53;10.55;;;6.88;;
39880;SDS011;25554;44.954;10.068;2023-06-10T02:47:31;10.57;;;6.70;;
39880;SDS011;25554;44.954;10.068;2023-06-10T02:49:58;13.07;;;7.70;;
39880;SDS011;25554;44.954;10.068;2023-06-10T02:52:25;11.57;;;6.93;;
39880;SDS011;25554;44.954;10.068;2023-06-10T02:54:52;17.88;;;7.82;;
39880;SDS011;25554;44.954;10.068;2023-06-10T02:57:18;15.27;;;7.32;;
39880;SDS011;25554;44.954;10.068;2023-06-10T02:59:45;14.00;;;8.60;;
39880;SDS011;25554;44.954;10.068;2023-06-10T03:02:13;16.73;;;8.30;;
39880;SDS011;25554;44.954;10.068;2023-06-10T03:04:45;15.98;;;8.05;;
39880;SDS011;25554;44.954;10.068;2023-06-10T03:07:16;14.90;;;7.45;;
39880;SDS011;25554;44.954;10.068;2023-06-10T03:09:45;12.30;;;7.40;;
39880;SDS011;25554;44.954;10.068;2023-06-10T03:12:13;12.07;;;8.02;;
39880;SDS011;25554;44.954;10.068;2023-06-10T03:14:44;17.85;;;9.20;;
39880;SDS011;25554;44.954;10.068;2023-06-10T03:17:11;14.32;;;7.82;;
39880;SDS011;25554;44.954;10.068;2023-06-10T03:19:40;16.50;;;7.72;;
39880;SDS011;25554;44.954;10.068;2023-06-10T03:22:11;12.07;;;7.10;;
39880;SDS011;25554;44.954;10.068;2023-06-10T03:24:47;10.57;;;6.88;;
39880;SDS011;25554;44.954;10.068;2023-06-10T03:27:16;12.35;;;7.50;;
39880;SDS011;25554;44.954;10.068;2023-06-10T03:29:46;13.45;;;7.18;;
39880;SDS011;25554;44.954;10.068;2023-06-10T03:32:13;10.73;;;6.47;;
39880;SDS011;25554;44.954;10.068;2023-06-10T03:34:41;10.55;;;6.68;;
39880;SDS011;25554;44.954;10.068;2023-06-10T03:37:10;10.07;;;6.70;;
39880;SDS011;25554;44.954;10.068;2023-06-10T03:39:37;13.27;;;6.40;;
39880;SDS011;25554;44.954;10.068;2023-06-10T03:42:04;10.15;;;7.20;;
39880;SDS011;25554;44.954;10.068;2023-06-10T03:44:32;10.55;;;7.65;;
39880;SDS011;25554;44.954;10.068;2023-06-10T03:46:59;13.77;;;8.65;;
39880;SDS011;25554;44.954;10.068;2023-06-10T03:49:26;10.75;;;8.50;;
39880;SDS011;25554;44.954;10.068;2023-06-10T03:51:57;12.85;;;8.77;;
39880;SDS011;25554;44.954;10.068;2023-06-10T03:54:25;12.30;;;8.45;;
39880;SDS011;25554;44.954;10.068;2023-06-10T03:56:52;10.20;;;7.63;;
39880;SDS011;25554;44.954;10.068;2023-06-10T03:59:19;10.05;;;7.22;;
39880;SDS011;25554;44.954;10.068;2023-06-10T04:01:45;13.10;;;8.18;;
39880;SDS011;25554;44.954;10.068;2023-06-10T04:04:15;17.70;;;8.73;;
39880;SDS011;25554;44.954;10.068;2023-06-10T04:06:42;15.10;;;7.47;;
39880;SDS011;25554;44.954;10.068;2023-06-10T04:09:11;18.20;;;8.38;;
39880;SDS011;25554;44.954;10.068;2023-06-10T04:11:39;12.43;;;7.78;;
39880;SDS011;25554;44.954;10.068;2023-06-10T04:14:07;15.63;;;8.18;;
39880;SDS011;25554;44.954;10.068;2023-06-10T04:16:35;12.35;;;8.18;;
39880;SDS011;25554;44.954;10.068;2023-06-10T04:19:04;13.35;;;7.32;;
39880;SDS011;25554;44.954;10.068;2023-06-10T04:21:31;15.65;;;8.50;;
39880;SDS011;25554;44.954;10.068;2023-06-10T04:23:58;13.05;;;7.68;;
39880;SDS011;25554;44.954;10.068;2023-06-10T04:26:25;12.63;;;7.80;;
39880;SDS011;25554;44.954;10.068;2023-06-10T04:28:53;14.98;;;8.50;;
39880;SDS011;25554;44.954;10.068;2023-06-10T04:31:20;16.92;;;9.23;;
39880;SDS011;25554;44.954;10.068;2023-06-10T04:33:47;17.67;;;9.15;;
39880;SDS011;25554;44.954;10.068;2023-06-10T04:36:14;20.95;;;9.57;;
39880;SDS011;25554;44.954;10.068;2023-06-10T04:38:41;15.55;;;8.57;;
39880;SDS011;25554;44.954;10.068;2023-06-10T04:41:08;17.35;;;9.93;;
39880;SDS011;25554;44.954;10.068;2023-06-10T04:43:36;14.20;;;9.52;;
39880;SDS011;25554;44.954;10.068;2023-06-10T04:46:03;13.75;;;9.82;;
39880;SDS011;25554;44.954;10.068;2023-06-10T04:48:30;13.85;;;8.75;;
39880;SDS011;25554;44.954;10.068;2023-06-10T04:50:58;13.93;;;9.45;;
39880;SDS011;25554;44.954;10.068;2023-06-10T04:53:25;19.73;;;10.80;;
39880;SDS011;25554;44.954;10.068;2023-06-10T04:55:54;15.90;;;9.35;;
39880;SDS011;25554;44.954;10.068;2023-06-10T04:58:20;15.93;;;8.38;;
39880;SDS011;25554;44.954;10.068;2023-06-10T05:00:47;14.90;;;8.98;;
39880;SDS011;25554;44.954;10.068;2023-06-10T05:05:40;14.77;;;10.75;;
39880;SDS011;25554;44.954;10.068;2023-06-10T05:08:07;14.18;;;9.48;;
39880;SDS011;25554;44.954;10.068;2023-06-10T05:10:33;15.63;;;9.45;;
39880;SDS011;25554;44.954;10.068;2023-06-10T05:13:00;17.92;;;9.65;;
39880;SDS011;25554;44.954;10.068;2023-06-10T05:15:28;18.40;;;10.43;;
39880;SDS011;25554;44.954;10.068;2023-06-10T05:17:56;14.63;;;9.38;;
39880;SDS011;25554;44.954;10.068;2023-06-10T05:20:28;14.30;;;9.75;;
39880;SDS011;25554;44.954;10.068;2023-06-10T05:22:54;17.88;;;9.23;;
39880;SDS011;25554;44.954;10.068;2023-06-10T05:25:21;15.15;;;8.82;;
39880;SDS011;25554;44.954;10.068;2023-06-10T05:27:48;13.05;;;8.88;;
39880;SDS011;25554;44.954;10.068;2023-06-10T05:32:44;15.90;;;9.38;;
39880;SDS011;25554;44.954;10.068;2023-06-10T05:35:10;12.18;;;9.35;;
39880;SDS011;25554;44.954;10.068;2023-06-10T05:37:37;11.88;;;8.50;;
39880;SDS011;25554;44.954;10.068;2023-06-10T05:42:30;16.60;;;10.05;;
39880;SDS011;25554;44.954;10.068;2023-06-10T05:47:22;14.40;;;9.00;;
39880;SDS011;25554;44.954;10.068;2023-06-10T05:49:49;14.07;;;8.93;;
39880;SDS011;25554;44.954;10.068;2023-06-10T05:52:17;11.88;;;8.32;;
39880;SDS011;25554;44.954;10.068;2023-06-10T05:54:44;17.17;;;9.18;;
39880;SDS011;25554;44.954;10.068;2023-06-10T05:57:10;16.08;;;8.85;;
39880;SDS011;25554;44.954;10.068;2023-06-10T05:59:37;14.85;;;9.07;;
39880;SDS011;25554;44.954;10.068;2023-06-10T06:04:30;17.02;;;9.02;;
39880;SDS011;25554;44.954;10.068;2023-06-10T06:06:57;11.18;;;7.90;;
39880;SDS011;25554;44.954;10.068;2023-06-10T06:11:50;13.20;;;7.78;;
39880;SDS011;25554;44.954;10.068;2023-06-10T06:14:17;12.90;;;7.50;;
39880;SDS011;25554;44.954;10.068;2023-06-10T06:19:09;10.30;;;6.68;;
39880;SDS011;25554;44.954;10.068;2023-06-10T06:21:36;9.38;;;6.68;;
39880;SDS011;25554;44.954;10.068;2023-06-10T06:26:29;8.50;;;6.80;;
39880;SDS011;25554;44.954;10.068;2023-06-10T06:28:56;11.80;;;6.78;;
39880;SDS011;25554;44.954;10.068;2023-06-10T06:31:23;8.43;;;6.13;;
39880;SDS011;25554;44.954;10.068;2023-06-10T06:33:49;9.13;;;6.28;;
39880;SDS011;25554;44.954;10.068;2023-06-10T06:36:16;7.90;;;6.32;;
39880;SDS011;25554;44.954;10.068;2023-06-10T06:41:08;6.15;;;5.43;;
39880;SDS011;25554;44.954;10.068;2023-06-10T06:43:35;6.88;;;5.70;;
39880;SDS011;25554;44.954;10.068;2023-06-10T06:46:20;6.63;;;5.15;;
39880;SDS011;25554;44.954;10.068;2023-06-10T06:48:48;9.80;;;5.22;;
39880;SDS011;25554;44.954;10.068;2023-06-10T06:51:14;6.03;;;5.40;;
39880;SDS011;25554;44.954;10.068;2023-06-10T06:56:11;8.57;;;5.20;;
39880;SDS011;25554;44.954;10.068;2023-06-10T06:58:38;5.43;;;4.88;;
39880;SDS011;25554;44.954;10.068;2023-06-10T07:01:05;10.75;;;5.07;;
39880;SDS011;25554;44.954;10.068;2023-06-10T07:03:31;4.63;;;4.18;;
39880;SDS011;25554;44.954;10.068;2023-06-10T07:05:58;5.32;;;4.40;;
39880;SDS011;25554;44.954;10.068;2023-06-10T07:08:25;5.00;;;4.35;;
39880;SDS011;25554;44.954;10.068;2023-06-10T07:10:51;6.35;;;4.20;;
39880;SDS011;25554;44.954;10.068;2023-06-10T07:13:18;7.57;;;4.68;;
39880;SDS011;25554;44.954;10.068;2023-06-10T07:15:46;7.95;;;5.32;;
39880;SDS011;25554;44.954;10.068;2023-06-10T07:18:12;7.82;;;5.95;;
39880;SDS011;25554;44.954;10.068;2023-06-10T07:23:06;7.70;;;4.63;;
39880;SDS011;25554;44.954;10.068;2023-06-10T07:25:33;6.82;;;4.90;;
39880;SDS011;25554;44.954;10.068;2023-06-10T07:28:00;4.93;;;4.25;;
39880;SDS011;25554;44.954;10.068;2023-06-10T07:32:53;9.95;;;4.60;;
39880;SDS011;25554;44.954;10.068;2023-06-10T07:35:21;7.28;;;4.95;;
39880;SDS011;25554;44.954;10.068;2023-06-10T07:37:47;6.90;;;4.60;;
39880;SDS011;25554;44.954;10.068;2023-06-10T07:40:14;5.63;;;4.50;;
39880;SDS011;25554;44.954;10.068;2023-06-10T07:42:41;6.75;;;4.80;;
39880;SDS011;25554;44.954;10.068;2023-06-10T07:45:08;5.75;;;4.20;;
39880;SDS011;25554;44.954;10.068;2023-06-10T07:47:35;5.20;;;4.45;;
39880;SDS011;25554;44.954;10.068;2023-06-10T07:50:02;4.85;;;4.05;;
39880;SDS011;25554;44.954;10.068;2023-06-10T07:52:28;7.57;;;4.55;;
39880;SDS011;25554;44.954;10.068;2023-06-10T07:54:55;5.35;;;4.15;;
39880;SDS011;25554;44.954;10.068;2023-06-10T07:57:21;6.68;;;4.18;;
39880;SDS011;25554;44.954;10.068;2023-06-10T07:59:48;7.22;;;4.38;;
39880;SDS011;25554;44.954;10.068;2023-06-10T08:02:15;4.80;;;3.88;;
39880;SDS011;25554;44.954;10.068;2023-06-10T08:07:07;6.63;;;3.60;;
39880;SDS011;25554;44.954;10.068;2023-06-10T08:09:34;4.05;;;2.78;;
39880;SDS011;25554;44.954;10.068;2023-06-10T08:12:00;7.03;;;3.80;;
39880;SDS011;25554;44.954;10.068;2023-06-10T08:14:27;5.10;;;3.03;;
39880;SDS011;25554;44.954;10.068;2023-06-10T08:16:53;5.30;;;3.63;;
39880;SDS011;25554;44.954;10.068;2023-06-10T08:19:20;5.70;;;3.22;;
39880;SDS011;25554;44.954;10.068;2023-06-10T08:21:47;4.20;;;3.08;;
39880;SDS011;25554;44.954;10.068;2023-06-10T08:24:13;6.15;;;2.40;;
39880;SDS011;25554;44.954;10.068;2023-06-10T08:26:43;2.58;;;2.03;;
39880;SDS011;25554;44.954;10.068;2023-06-10T08:29:11;3.10;;;1.70;;
39880;SDS011;25554;44.954;10.068;2023-06-10T08:31:40;3.40;;;2.15;;
39880;SDS011;25554;44.954;10.068;2023-06-10T08:34:08;3.42;;;2.15;;
39880;SDS011;25554;44.954;10.068;2023-06-10T08:36:35;4.85;;;2.50;;
39880;SDS011;25554;44.954;10.068;2023-06-10T08:39:02;4.15;;;2.50;;
39880;SDS011;25554;44.954;10.068;2023-06-10T08:41:29;4.22;;;2.50;;
39880;SDS011;25554;44.954;10.068;2023-06-10T08:44:06;4.15;;;2.20;;
39880;SDS011;25554;44.954;10.068;2023-06-10T08:46:38;7.10;;;3.00;;
39880;SDS011;25554;44.954;10.068;2023-06-10T08:49:05;2.60;;;2.10;;
39880;SDS011;25554;44.954;10.068;2023-06-10T08:51:34;4.35;;;2.58;;
39880;SDS011;25554;44.954;10.068;2023-06-10T08:54:04;3.05;;;2.25;;
39880;SDS011;25554;44.954;10.068;2023-06-10T08:56:38;3.63;;;2.47;;
39880;SDS011;25554;44.954;10.068;2023-06-10T08:59:05;3.55;;;2.40;;
39880;SDS011;25554;44.954;10.068;2023-06-10T09:01:32;4.07;;;2.10;;
39880;SDS011;25554;44.954;10.068;2023-06-10T09:03:59;7.32;;;1.90;;
39880;SDS011;25554;44.954;10.068;2023-06-10T09:06:27;3.65;;;1.85;;
39880;SDS011;25554;44.954;10.068;2023-06-10T09:08:53;4.03;;;2.30;;
39880;SDS011;25554;44.954;10.068;2023-06-10T09:11:20;2.75;;;1.85;;
39880;SDS011;25554;44.954;10.068;2023-06-10T09:13:47;4.70;;;2.60;;
39880;SDS011;25554;44.954;10.068;2023-06-10T09:16:13;2.63;;;2.30;;
39880;SDS011;25554;44.954;10.068;2023-06-10T09:18:41;5.22;;;1.92;;
39880;SDS011;25554;44.954;10.068;2023-06-10T09:21:08;3.95;;;1.98;;
39880;SDS011;25554;44.954;10.068;2023-06-10T09:23:35;3.65;;;2.20;;
39880;SDS011;25554;44.954;10.068;2023-06-10T09:26:02;5.60;;;2.65;;
39880;SDS011;25554;44.954;10.068;2023-06-10T09:28:34;4.18;;;3.05;;
39880;SDS011;25554;44.954;10.068;2023-06-10T09:31:02;4.10;;;3.00;;
39880;SDS011;25554;44.954;10.068;2023-06-10T09:33:31;3.90;;;2.92;;
39880;SDS011;25554;44.954;10.068;2023-06-10T09:35:58;3.45;;;2.60;;
39880;SDS011;25554;44.954;10.068;2023-06-10T09:38:31;3.45;;;1.83;;
39880;SDS011;25554;44.954;10.068;2023-06-10T09:40:59;4.53;;;1.85;;
39880;SDS011;25554;44.954;10.068;2023-06-10T09:43:42;3.35;;;2.38;;
39880;SDS011;25554;44.954;10.068;2023-06-10T09:46:16;2.03;;;1.60;;
39880;SDS011;25554;44.954;10.068;2023-06-10T09:48:43;2.75;;;1.88;;
39880;SDS011;25554;44.954;10.068;2023-06-10T09:51:11;5.47;;;2.65;;
39880;SDS011;25554;44.954;10.068;2023-06-10T09:53:42;3.35;;;2.03;;
39880;SDS011;25554;44.954;10.068;2023-06-10T09:56:09;4.57;;;2.35;;
39880;SDS011;25554;44.954;10.068;2023-06-10T09:58:36;3.42;;;1.80;;
39880;SDS011;25554;44.954;10.068;2023-06-10T10:01:09;3.50;;;2.40;;
39880;SDS011;25554;44.954;10.068;2023-06-10T10:03:43;3.60;;;3.30;;
39880;SDS011;25554;44.954;10.068;2023-06-10T10:06:12;3.40;;;2.97;;
39880;SDS011;25554;44.954;10.068;2023-06-10T10:08:39;5.72;;;3.17;;
39880;SDS011;25554;44.954;10.068;2023-06-10T10:11:06;4.78;;;3.20;;
39880;SDS011;25554;44.954;10.068;2023-06-10T10:13:33;4.25;;;3.15;;
39880;SDS011;25554;44.954;10.068;2023-06-10T10:16:02;5.60;;;3.88;;
39880;SDS011;25554;44.954;10.068;2023-06-10T10:18:35;7.10;;;3.72;;
39880;SDS011;25554;44.954;10.068;2023-06-10T10:21:06;6.85;;;3.40;;
39880;SDS011;25554;44.954;10.068;2023-06-10T10:23:40;3.97;;;3.58;;
39880;SDS011;25554;44.954;10.068;2023-06-10T10:26:12;4.75;;;3.42;;
39880;SDS011;25554;44.954;10.068;2023-06-10T10:28:47;4.90;;;3.60;;
39880;SDS011;25554;44.954;10.068;2023-06-10T10:31:19;5.38;;;3.05;;
39880;SDS011;25554;44.954;10.068;2023-06-10T10:33:59;4.57;;;2.92;;
39880;SDS011;25554;44.954;10.068;2023-06-10T10:36:30;5.82;;;2.95;;
39880;SDS011;25554;44.954;10.068;2023-06-10T10:38:56;4.85;;;2.42;;
39880;SDS011;25554;44.954;10.068;2023-06-10T10:41:24;2.90;;;2.30;;
39880;SDS011;25554;44.954;10.068;2023-06-10T10:43:52;2.38;;;1.80;;
39880;SDS011;25554;44.954;10.068;2023-06-10T10:46:18;5.88;;;2.55;;
39880;SDS011;25554;44.954;10.068;2023-06-10T10:48:45;4.90;;;2.47;;
39880;SDS011;25554;44.954;10.068;2023-06-10T10:51:17;6.35;;;3.03;;
39880;SDS011;25554;44.954;10.068;2023-06-10T10:53:44;7.25;;;3.50;;
39880;SDS011;25554;44.954;10.068;2023-06-10T10:56:14;4.82;;;2.67;;
39880;SDS011;25554;44.954;10.068;2023-06-10T10:59:01;3.63;;;2.65;;
39880;SDS011;25554;44.954;10.068;2023-06-10T11:01:42;6.22;;;3.08;;
39880;SDS011;25554;44.954;10.068;2023-06-10T11:04:12;10.85;;;2.72;;
39880;SDS011;25554;44.954;10.068;2023-06-10T11:06:38;5.63;;;3.25;;
39880;SDS011;25554;44.954;10.068;2023-06-10T11:11:57;6.50;;;2.42;;
39880;SDS011;25554;44.954;10.068;2023-06-10T11:14:27;2.78;;;2.25;;
39880;SDS011;25554;44.954;10.068;2023-06-10T11:16:58;2.97;;;1.70;;
39880;SDS011;25554;44.954;10.068;2023-06-10T11:19:32;5.32;;;2.20;;
39880;SDS011;25554;44.954;10.068;2023-06-10T11:22:03;4.80;;;2.13;;
39880;SDS011;25554;44.954;10.068;2023-06-10T11:24:33;1.88;;;1.02;;
39880;SDS011;25554;44.954;10.068;2023-06-10T11:27:19;1.65;;;1.20;;
39880;SDS011;25554;44.954;10.068;2023-06-10T11:29:57;1.20;;;1.10;;
39880;SDS011;25554;44.954;10.068;2023-06-10T11:32:29;5.53;;;2.00;;
39880;SDS011;25554;44.954;10.068;2023-06-10T11:35:00;3.75;;;2.03;;
39880;SDS011;25554;44.954;10.068;2023-06-10T11:37:29;3.78;;;1.75;;
39880;SDS011;25554;44.954;10.068;2023-06-10T11:39:56;4.15;;;2.58;;
39880;SDS011;25554;44.954;10.068;2023-06-10T11:42:22;3.15;;;1.83;;
39880;SDS011;25554;44.954;10.068;2023-06-10T11:44:50;4.43;;;2.38;;
39880;SDS011;25554;44.954;10.068;2023-06-10T11:47:17;4.18;;;2.50;;
39880;SDS011;25554;44.954;10.068;2023-06-10T11:49:44;5.07;;;2.30;;
39880;SDS011;25554;44.954;10.068;2023-06-10T11:52:11;5.18;;;2.00;;
39880;SDS011;25554;44.954;10.068;2023-06-10T11:54:38;4.13;;;2.30;;
39880;SDS011;25554;44.954;10.068;2023-06-10T11:57:05;3.33;;;1.92;;
39880;SDS011;25554;44.954;10.068;2023-06-10T11:59:34;4.35;;;2.15;;
39880;SDS011;25554;44.954;10.068;2023-06-10T12:02:00;5.50;;;2.60;;
39880;SDS011;25554;44.954;10.068;2023-06-10T12:04:27;4.03;;;2.75;;
39880;SDS011;25554;44.954;10.068;2023-06-10T12:06:54;4.15;;;1.77;;
39880;SDS011;25554;44.954;10.068;2023-06-10T12:09:22;5.88;;;2.00;;
39880;SDS011;25554;44.954;10.068;2023-06-10T12:11:51;2.67;;;1.50;;
39880;SDS011;25554;44.954;10.068;2023-06-10T12:20:06;3.13;;;1.60;;
39880;SDS011;25554;44.954;10.068;2023-06-10T12:22:37;4.57;;;1.95;;
39880;SDS011;25554;44.954;10.068;2023-06-10T12:25:07;3.50;;;1.52;;
39880;SDS011;25554;44.954;10.068;2023-06-10T12:27:34;5.43;;;2.15;;
39880;SDS011;25554;44.954;10.068;2023-06-10T12:30:03;6.70;;;2.00;;
39880;SDS011;25554;44.954;10.068;2023-06-10T12:32:35;4.78;;;1.92;;
39880;SDS011;25554;44.954;10.068;2023-06-10T12:35:05;4.38;;;1.80;;
39880;SDS011;25554;44.954;10.068;2023-06-10T12:37:32;4.25;;;1.92;;
39880;SDS011;25554;44.954;10.068;2023-06-10T12:40:03;6.97;;;1.70;;
39880;SDS011;25554;44.954;10.068;2023-06-10T12:42:31;2.05;;;1.70;;
39880;SDS011;25554;44.954;10.068;2023-06-10T12:45:01;3.75;;;1.88;;
39880;SDS011;25554;44.954;10.068;2023-06-10T12:47:32;5.63;;;2.50;;
39880;SDS011;25554;44.954;10.068;2023-06-10T12:50:03;5.13;;;2.03;;
39880;SDS011;25554;44.954;10.068;2023-06-10T12:52:31;4.82;;;2.10;;
39880;SDS011;25554;44.954;10.068;2023-06-10T12:54:58;3.28;;;2.10;;
39880;SDS011;25554;44.954;10.068;2023-06-10T12:57:26;3.42;;;2.30;;
39880;SDS011;25554;44.954;10.068;2023-06-10T12:59:52;3.97;;;2.20;;
39880;SDS011;25554;44.954;10.068;2023-06-10T13:02:19;3.70;;;2.00;;
39880;SDS011;25554;44.954;10.068;2023-06-10T13:04:46;4.72;;;2.25;;
39880;SDS011;25554;44.954;10.068;2023-06-10T13:07:13;3.30;;;2.20;;
39880;SDS011;25554;44.954;10.068;2023-06-10T13:09:40;3.70;;;2.10;;
39880;SDS011;25554;44.954;10.068;2023-06-10T13:12:06;5.32;;;2.30;;
39880;SDS011;25554;44.954;10.068;2023-06-10T13:14:33;3.65;;;1.88;;
39880;SDS011;25554;44.954;10.068;2023-06-10T13:17:00;5.20;;;2.45;;
39880;SDS011;25554;44.954;10.068;2023-06-10T13:19:26;5.63;;;2.78;;
39880;SDS011;25554;44.954;10.068;2023-06-10T13:21:53;10.02;;;2.60;;
39880;SDS011;25554;44.954;10.068;2023-06-10T13:24:20;9.80;;;6.03;;
39880;SDS011;25554;44.954;10.068;2023-06-10T13:26:46;6.22;;;2.47;;
39880;SDS011;25554;44.954;10.068;2023-06-10T13:29:13;6.50;;;1.58;;
39880;SDS011;25554;44.954;10.068;2023-06-10T13:31:40;4.80;;;2.03;;
39880;SDS011;25554;44.954;10.068;2023-06-10T13:34:08;5.15;;;1.90;;
39880;SDS011;25554;44.954;10.068;2023-06-10T13:36:34;3.63;;;2.00;;
39880;SDS011;25554;44.954;10.068;2023-06-10T13:39:01;4.57;;;1.73;;
39880;SDS011;25554;44.954;10.068;2023-06-10T13:41:27;5.22;;;2.03;;
39880;SDS011;25554;44.954;10.068;2023-06-10T13:43:54;4.70;;;2.13;;
39880;SDS011;25554;44.954;10.068;2023-06-10T13:46:21;3.90;;;1.98;;
39880;SDS011;25554;44.954;10.068;2023-06-10T13:48:48;4.75;;;2.42;;
39880;SDS011;25554;44.954;10.068;2023-06-10T13:51:15;3.28;;;1.98;;
39880;SDS011;25554;44.954;10.068;2023-06-10T13:53:42;7.28;;;2.47;;
39880;SDS011;25554;44.954;10.068;2023-06-10T13:56:08;3.20;;;1.77;;
39880;SDS011;25554;44.954;10.068;2023-06-10T13:58:35;4.05;;;1.90;;
39880;SDS011;25554;44.954;10.068;2023-06-10T14:01:04;3.22;;;2.05;;
39880;SDS011;25554;44.954;10.068;2023-06-10T14:03:31;5.07;;;1.88;;
39880;SDS011;25554;44.954;10.068;2023-06-10T14:05:58;4.32;;;2.05;;
39880;SDS011;25554;44.954;10.068;2023-06-10T14:08:25;4.40;;;1.75;;
39880;SDS011;25554;44.954;10.068;2023-06-10T14:10:51;2.53;;;2.10;;
39880;SDS011;25554;44.954;10.068;2023-06-10T14:13:18;3.47;;;1.95;;
39880;SDS011;25554;44.954;10.068;2023-06-10T14:15:45;6.75;;;2.10;;
39880;SDS011;25554;44.954;10.068;2023-06-10T14:18:12;4.05;;;1.67;;
39880;SDS011;25554;44.954;10.068;2023-06-10T14:20:38;4.60;;;1.90;;
39880;SDS011;25554;44.954;10.068;2023-06-10T14:23:05;4.88;;;2.00;;
39880;SDS011;25554;44.954;10.068;2023-06-10T14:25:31;5.05;;;1.80;;
39880;SDS011;25554;44.954;10.068;2023-06-10T14:27:58;3.85;;;2.10;;
39880;SDS011;25554;44.954;10.068;2023-06-10T14:30:25;5.47;;;2.33;;
39880;SDS011;25554;44.954;10.068;2023-06-10T14:32:51;7.45;;;2.00;;
39880;SDS011;25554;44.954;10.068;2023-06-10T14:35:18;3.90;;;2.00;;
39880;SDS011;25554;44.954;10.068;2023-06-10T14:37:48;7.68;;;3.30;;
39880;SDS011;25554;44.954;10.068;2023-06-10T14:40:15;3.38;;;2.03;;
39880;SDS011;25554;44.954;10.068;2023-06-10T14:42:42;4.57;;;1.85;;
39880;SDS011;25554;44.954;10.068;2023-06-10T14:45:08;2.20;;;1.67;;
39880;SDS011;25554;44.954;10.068;2023-06-10T14:47:35;4.10;;;1.73;;
39880;SDS011;25554;44.954;10.068;2023-06-10T14:50:02;6.95;;;2.17;;
39880;SDS011;25554;44.954;10.068;2023-06-10T14:52:29;6.53;;;3.15;;
39880;SDS011;25554;44.954;10.068;2023-06-10T14:54:55;6.85;;;3.58;;
39880;SDS011;25554;44.954;10.068;2023-06-10T14:57:22;9.60;;;3.20;;
39880;SDS011;25554;44.954;10.068;2023-06-10T14:59:49;7.55;;;3.50;;
39880;SDS011;25554;44.954;10.068;2023-06-10T15:02:16;6.85;;;3.53;;
39880;SDS011;25554;44.954;10.068;2023-06-10T15:04:42;4.68;;;3.00;;
39880;SDS011;25554;44.954;10.068;2023-06-10T15:07:09;6.75;;;2.88;;
39880;SDS011;25554;44.954;10.068;2023-06-10T15:09:35;6.10;;;3.17;;
39880;SDS011;25554;44.954;10.068;2023-06-10T15:12:02;3.95;;;2.70;;
39880;SDS011;25554;44.954;10.068;2023-06-10T15:14:29;5.53;;;2.90;;